PWSweather.com
Personal Weather Stations
Station Observations
BLACKWELL
Blackwell, AlfretonGB DE55

BlackwellAlfretonGB DE55

Lat: 53.12076, Lon: -1.354978

Elevation: 410

Station Type: Vantage Pro

High Low Average
Temperature 47.5°F8.6°C 31.3°F-0.4°C 41.3°F5.2°C
Dew Point 43.5°F6.4°C 29.5°F-1.4°C 38.4°F3.6°C
Winds 3.0 mph 4.8 kmh Calm Calm 1.0 mph S1.6 kmh S
Wind Gusts 11.0 mph17.7 kmh -- 5.0 mph8.0 kmh
Humidity 96% 75% 89%
Pressure 30.16 in1021.3 mb 29.85 in1010.8 mb -
Precipitation 0.29 in7.4 mm - -
Hour Temp Dew Point Humidity Winds Wind Gusts Pressure Precip Precip Rate Daily Precip Total
12:28 AM 40.3°F4.6°C 37.6°F3.1°C 90% 2.0 mph S3.2 kmh S 11.0 mph17.7 kmh 30.02 in1016.6 mb 0.00 in0.0 mm 0.00 in0.0 mm 0.00 in0.0 mm
01:28 AM 40.8°F4.9°C 38.1°F3.4°C 90% 3.0 mph SSW4.8 kmh SSW 10.0 mph16.1 kmh 29.99 in1015.6 mb 0.01 in0.3 mm 0.00 in0.0 mm 0.01 in0.3 mm
02:28 AM 40.5°F4.7°C 38.8°F3.8°C 94% 2.0 mph SW3.2 kmh SW 7.0 mph11.3 kmh 29.95 in1014.2 mb 0.03 in0.8 mm 0.00 in0.0 mm 0.04 in1.0 mm
03:28 AM 40.6°F4.8°C 39.2°F4.0°C 95% 1.0 mph S1.6 kmh S 7.0 mph11.3 kmh 29.92 in1013.2 mb 0.03 in0.8 mm 0.00 in0.0 mm 0.08 in2.0 mm
04:28 AM 40.8°F4.9°C 39.9°F4.4°C 96% 2.0 mph SSW3.2 kmh SSW 7.0 mph11.3 kmh 29.89 in1012.2 mb 0.08 in2.0 mm 0.00 in0.0 mm 0.15 in3.8 mm
05:28 AM 41.7°F5.4°C 40.6°F4.8°C 96% 3.0 mph SSW4.8 kmh SSW 10.0 mph16.1 kmh 29.87 in1011.5 mb 0.12 in3.0 mm 0.00 in0.0 mm 0.27 in6.9 mm
06:28 AM 42.1°F5.6°C 40.8°F4.9°C 95% 2.0 mph WSW3.2 kmh WSW 6.0 mph9.7 kmh 29.86 in1011.2 mb 0.01 in0.3 mm 0.00 in0.0 mm 0.28 in7.1 mm
07:28 AM 42.1°F5.6°C 41.0°F5.0°C 96% 2.0 mph WSW3.2 kmh WSW 9.0 mph14.5 kmh 29.85 in1010.8 mb 0.01 in0.3 mm 0.00 in0.0 mm 0.28 in7.1 mm
08:28 AM 42.6°F5.9°C 41.5°F5.3°C 96% 3.0 mph WSW4.8 kmh WSW 7.0 mph11.3 kmh 29.86 in1011.2 mb 0.00 in0.0 mm 0.00 in0.0 mm 0.28 in7.1 mm
09:28 AM 43.3°F6.3°C 42.3°F5.7°C 96% 2.0 mph SW3.2 kmh SW 6.0 mph9.7 kmh 29.87 in1011.5 mb 0.01 in0.3 mm 0.00 in0.0 mm 0.29 in7.4 mm
10:28 AM 44.6°F7.0°C 43.5°F6.4°C 96% 3.0 mph WSW4.8 kmh WSW 7.0 mph11.3 kmh 29.88 in1011.9 mb 0.00 in0.0 mm 0.00 in0.0 mm 0.29 in7.4 mm
11:28 AM 46.2°F7.9°C 43.3°F6.3°C 90% 2.0 mph SW3.2 kmh SW 8.0 mph12.9 kmh 29.91 in1012.9 mb 0.00 in0.0 mm 0.00 in0.0 mm 0.29 in7.4 mm
12:28 PM 46.8°F8.2°C 41.5°F5.3°C 82% 3.0 mph SW4.8 kmh SW 7.0 mph11.3 kmh 29.93 in1013.5 mb 0.00 in0.0 mm 0.00 in0.0 mm 0.29 in7.4 mm
01:28 PM 47.5°F8.6°C 40.6°F4.8°C 77% 1.0 mph SW1.6 kmh SW 6.0 mph9.7 kmh 29.96 in1014.6 mb 0.00 in0.0 mm 0.00 in0.0 mm 0.29 in7.4 mm
02:28 PM 46.9°F8.3°C 39.4°F4.1°C 75% 1.0 mph SW1.6 kmh SW 5.0 mph8.0 kmh 29.98 in1015.2 mb 0.00 in0.0 mm 0.00 in0.0 mm 0.29 in7.4 mm
03:28 PM 46.0°F7.8°C 38.7°F3.7°C 75% Calm Calm 3.0 mph4.8 kmh 30.00 in1015.9 mb 0.00 in0.0 mm 0.00 in0.0 mm 0.29 in7.4 mm
04:28 PM 45.3°F7.4°C 38.1°F3.4°C 76% Calm Calm 3.0 mph4.8 kmh 30.03 in1016.9 mb 0.00 in0.0 mm 0.00 in0.0 mm 0.29 in7.4 mm
05:28 PM 42.1°F5.6°C 37.0°F2.8°C 82% Calm Calm 2.0 mph3.2 kmh 30.06 in1017.9 mb 0.00 in0.0 mm 0.00 in0.0 mm 0.29 in7.4 mm
06:28 PM 37.9°F3.3°C 34.2°F1.2°C 86% Calm Calm -- 30.10 in1019.3 mb 0.00 in0.0 mm 0.00 in0.0 mm 0.29 in7.4 mm
07:28 PM 36.1°F2.3°C 33.6°F0.9°C 90% Calm Calm -- 30.11 in1019.6 mb 0.00 in0.0 mm 0.00 in0.0 mm 0.29 in7.4 mm
08:28 PM 36.1°F2.3°C 34.0°F1.1°C 92% Calm Calm -- 30.13 in1020.3 mb 0.00 in0.0 mm 0.00 in0.0 mm 0.29 in7.4 mm
09:28 PM 35.8°F2.1°C 34.2°F1.2°C 94% Calm Calm -- 30.14 in1020.7 mb 0.00 in0.0 mm 0.00 in0.0 mm 0.29 in7.4 mm
10:28 PM 34.7°F1.5°C 33.1°F0.6°C 94% Calm Calm -- 30.16 in1021.3 mb 0.00 in0.0 mm 0.00 in0.0 mm 0.29 in7.4 mm
11:28 PM 31.3°F-0.4°C 29.5°F-1.4°C 93% Calm Calm -- 30.16 in1021.3 mb 0.00 in0.0 mm 0.00 in0.0 mm 0.29 in7.4 mm